Triplett, North Carolina
Current Conditions -  °F | °C
As of 2:55 AM on Wednesday 22 Oct 2014 (Local Time) from KTNB Reporting Station
Scattered Clouds Scattered Clouds  
Wind Chill: 35°   Ceiling: Unl
Heat Index: 42°   Visibility: 10mi
Dew Point: 33°   Wind: 13mph
Humidity: 71%   Direction: 300°WNW
Pressure: 30"   Gusts: 22mph
Location:  36.1935°N, 81.5276°W
Report Text: KTNB 220655Z AUTO 30011G19KT 10SM SCT023 SCT027 06/01 A3000 RMK AO2 T00550006
Loading
Personal Weather Stations






























Interactive Weather Map
Tropical Storm Tracking
New forecast layout! Learn more

10-Day Weather Forecast

Advertisements
Track Severe Weather on mobile